Time;durP1;ratioP1;P1;durP2;ratioP2;P2;SDS_P1;SDS_P2;PMS_P1;PMS_P2;Temp;Humidity;BMP_temperature;BMP_pressure;BME280_temperature;BME280_humidity;BME280_pressure;Samples;Min_cycle;Max_cycle;Signal;HPM_P1;HPM_P2
2022/07/14 00:02:07;;;;;;;12.13;1.88;;;17.30;99.90;;;;;;5098849;28;20472;-74
2022/07/14 00:04:33;;;;;;;9.90;2.00;;;17.20;99.90;;;;;;5098502;28;20036;-74
2022/07/14 00:06:58;;;;;;;10.57;1.70;;;17.20;99.90;;;;;;5080550;28;20047;-74
2022/07/14 00:09:24;;;;;;;9.38;2.08;;;17.20;99.90;;;;;;5098852;28;20047;-74
2022/07/14 00:11:50;;;;;;;9.50;1.50;;;17.20;99.90;;;;;;5097571;28;20046;-74
2022/07/14 00:14:15;;;;;;;7.13;1.63;;;17.20;99.90;;;;;;5097550;28;20044;-74
2022/07/14 00:16:41;;;;;;;8.32;1.98;;;17.20;99.90;;;;;;5080712;28;20083;-74
2022/07/14 00:19:07;;;;;;;6.53;1.90;;;17.10;99.90;;;;;;5098567;28;20405;-74
2022/07/14 00:21:32;;;;;;;10.50;1.73;;;17.10;99.90;;;;;;5097151;28;20332;-74
2022/07/14 00:23:58;;;;;;;7.13;2.10;;;17.10;99.90;;;;;;5096051;28;20044;-74
2022/07/14 00:26:24;;;;;;;11.10;2.20;;;17.00;99.90;;;;;;5097888;28;20054;-74
2022/07/14 00:28:49;;;;;;;8.57;1.42;;;17.00;99.90;;;;;;5097175;28;20032;-74
2022/07/14 00:31:15;;;;;;;12.40;2.15;;;16.90;99.90;;;;;;5098105;28;20036;-74
2022/07/14 00:33:41;;;;;;;7.70;1.50;;;16.80;99.90;;;;;;5097010;28;20058;-75
2022/07/14 00:36:08;;;;;;;9.25;2.45;;;16.80;99.90;;;;;;5098007;28;20036;-74
2022/07/14 00:38:34;;;;;;;6.55;1.55;;;16.80;99.90;;;;;;5096900;28;20111;-74
2022/07/14 00:40:59;;;;;;;5.80;1.63;;;16.90;99.90;;;;;;5098203;28;20032;-74
2022/07/14 00:43:25;;;;;;;8.43;1.75;;;17.00;99.90;;;;;;5080113;28;20444;-74
2022/07/14 00:45:51;;;;;;;6.38;1.45;;;16.90;99.90;;;;;;5097013;28;20040;-73
2022/07/14 00:48:17;;;;;;;7.70;1.48;;;16.80;99.90;;;;;;5096584;28;20043;-76
2022/07/14 00:50:44;;;;;;;5.43;1.23;;;16.80;99.90;;;;;;5097630;28;20043;-74
2022/07/14 00:53:10;;;;;;;7.47;1.77;;;16.70;99.90;;;;;;5097644;28;20321;-73
2022/07/14 00:55:37;;;;;;;9.50;1.95;;;16.70;99.90;;;;;;5097307;28;20040;-74
2022/07/14 00:58:03;;;;;;;9.50;1.60;;;16.70;99.90;;;;;;5097845;28;20059;-73
2022/07/14 01:00:28;;;;;;;6.10;1.42;;;16.70;99.90;;;;;;5096813;28;20056;-73
2022/07/14 01:02:54;;;;;;;8.65;2.47;;;16.70;99.90;;;;;;5097347;28;20440;-74
2022/07/14 01:05:20;;;;;;;5.32;2.00;;;16.60;99.90;;;;;;5096322;28;20043;-74
2022/07/14 01:07:47;;;;;;;6.85;1.70;;;16.60;99.90;;;;;;5096441;28;20109;-74
2022/07/14 01:10:13;;;;;;;8.38;2.20;;;16.50;99.90;;;;;;5097448;28;20044;-74
2022/07/14 01:12:49;;;;;;;8.70;2.22;;;16.50;99.90;;;;;;5097527;28;20046;-74
2022/07/14 01:15:18;;;;;;;7.85;1.50;;;16.50;99.90;;;;;;5097272;28;20443;-74
2022/07/14 01:17:47;;;;;;;6.50;1.85;;;16.50;99.90;;;;;;5097135;28;20050;-74
2022/07/14 01:20:18;;;;;;;5.10;1.50;;;16.40;99.90;;;;;;5097503;28;20102;-73
2022/07/14 01:22:46;;;;;;;8.02;2.08;;;16.40;99.90;;;;;;5096069;28;20048;-73
2022/07/14 01:25:13;;;;;;;10.32;1.90;;;16.50;99.90;;;;;;5096732;28;20105;-75
2022/07/14 01:27:38;;;;;;;7.28;2.03;;;16.50;99.90;;;;;;5096068;28;20396;-74
2022/07/14 01:30:06;;;;;;;8.95;1.67;;;16.50;99.90;;;;;;5079407;28;20043;-75
2022/07/14 01:32:31;;;;;;;7.95;1.58;;;16.40;99.90;;;;;;5097049;28;20040;-74
2022/07/14 01:34:57;;;;;;;6.70;1.77;;;16.40;99.90;;;;;;5097019;28;20043;-74
2022/07/14 01:37:25;;;;;;;9.85;1.80;;;16.40;99.90;;;;;;5095778;28;20096;-74
2022/07/14 01:39:50;;;;;;;9.40;1.92;;;16.40;99.90;;;;;;5096873;28;20421;-74
2022/07/14 01:42:16;;;;;;;6.70;1.60;;;16.40;99.90;;;;;;5095805;28;20047;-74
2022/07/14 01:44:42;;;;;;;6.38;1.55;;;16.30;99.90;;;;;;5096736;28;20036;-74
2022/07/14 01:47:07;;;;;;;9.60;1.38;;;16.30;99.90;;;;;;5097045;28;20406;-74
2022/07/14 01:49:35;;;;;;;5.40;1.50;;;16.20;99.90;;;;;;5096947;28;20043;-74
2022/07/14 01:52:01;;;;;;;5.35;1.65;;;16.20;99.90;;;;;;5095636;28;20044;-74
2022/07/14 01:54:27;;;;;;;6.50;1.90;;;16.10;99.90;;;;;;5095622;28;20046;-73
2022/07/14 01:56:53;;;;;;;5.72;1.75;;;16.10;99.90;;;;;;5095775;28;20318;-74
2022/07/14 01:59:19;;;;;;;5.45;1.67;;;16.10;99.90;;;;;;5096812;28;20078;-74
2022/07/14 02:01:44;;;;;;;6.63;1.83;;;16.10;99.90;;;;;;5096457;28;20036;-74
2022/07/14 02:04:15;;;;;;;7.85;2.00;;;16.00;99.90;;;;;;5095886;28;20119;-74
2022/07/14 02:06:43;;;;;;;6.47;1.80;;;16.00;99.90;;;;;;5129824;28;20048;-74
2022/07/14 02:09:09;;;;;;;5.40;1.50;;;16.00;99.90;;;;;;5095504;28;20040;-74
2022/07/14 02:14:20;;;;;;;9.20;2.08;;;15.90;99.90;;;;;;5095726;28;20051;-74
2022/07/14 02:16:45;;;;;;;6.95;1.95;;;15.90;99.90;;;;;;5096455;28;20329;-74
2022/07/14 02:19:11;;;;;;;7.90;2.20;;;15.80;99.90;;;;;;5095524;28;20044;-74
2022/07/14 02:21:39;;;;;;;4.75;1.60;;;15.90;99.90;;;;;;5078892;28;20143;-74
2022/07/14 02:24:06;;;;;;;7.95;1.85;;;15.90;99.90;;;;;;5096151;28;20097;-73
2022/07/14 02:26:31;;;;;;;8.13;2.00;;;15.80;99.90;;;;;;5096125;28;20056;-74
2022/07/14 02:28:57;;;;;;;5.93;1.83;;;15.90;99.90;;;;;;5096435;28;20043;-74
2022/07/14 02:31:23;;;;;;;5.80;1.60;;;15.80;99.90;;;;;;5095283;28;20040;-73
2022/07/14 02:33:49;;;;;;;7.22;1.55;;;15.80;99.90;;;;;;5078635;28;20150;-74
2022/07/14 02:36:15;;;;;;;7.20;1.42;;;15.80;99.90;;;;;;5095568;28;20068;-74
2022/07/14 02:38:40;;;;;;;4.85;1.50;;;15.70;99.90;;;;;;5096243;28;20036;-74
2022/07/14 02:41:06;;;;;;;6.95;1.73;;;15.70;99.90;;;;;;5096169;28;20043;-74
2022/07/14 02:43:32;;;;;;;8.38;1.80;;;15.70;99.90;;;;;;5095032;28;20040;-73
2022/07/14 02:45:59;;;;;;;5.18;1.60;;;15.70;99.90;;;;;;5095437;28;20336;-74
2022/07/14 02:48:25;;;;;;;6.20;1.67;;;15.70;99.90;;;;;;5098412;28;20044;-74
2022/07/14 02:50:51;;;;;;;4.70;1.52;;;15.70;99.90;;;;;;5100282;28;20032;-75
2022/07/14 02:53:16;;;;;;;6.00;1.77;;;15.70;99.90;;;;;;5100263;28;20449;-74
2022/07/14 02:55:43;;;;;;;6.50;1.63;;;15.70;99.90;;;;;;5081666;28;20044;-74
2022/07/14 02:58:08;;;;;;;4.78;1.60;;;15.70;99.90;;;;;;5082111;28;20452;-74
2022/07/14 03:00:34;;;;;;;8.65;1.67;;;15.60;99.90;;;;;;5082218;28;20074;-74
2022/07/14 03:03:01;;;;;;;11.90;2.70;;;15.60;99.90;;;;;;5098883;28;20036;-74
2022/07/14 03:05:27;;;;;;;4.40;1.65;;;15.60;99.90;;;;;;5098921;28;20044;-74
2022/07/14 03:07:53;;;;;;;8.05;2.13;;;15.50;99.90;;;;;;5099716;28;20074;-74
2022/07/14 03:10:19;;;;;;;4.50;1.60;;;15.50;99.90;;;;;;5099626;28;20039;-74
2022/07/14 03:12:44;;;;;;;7.90;1.83;;;15.60;99.90;;;;;;5098698;28;20500;-74
2022/07/14 03:15:11;;;;;;;4.80;1.55;;;15.60;99.90;;;;;;5099612;28;20032;-74
2022/07/14 03:17:38;;;;;;;4.18;1.77;;;15.60;99.90;;;;;;5099807;28;20112;-74
2022/07/14 03:20:06;;;;;;;5.78;1.50;;;15.60;99.90;;;;;;5081809;28;20058;-74
2022/07/14 03:22:32;;;;;;;6.95;1.92;;;15.50;99.90;;;;;;5098700;28;20387;-74
2022/07/14 03:24:58;;;;;;;3.15;1.45;;;15.50;99.90;;;;;;5098754;28;20036;-74
2022/07/14 03:27:25;;;;;;;6.78;1.67;;;15.40;99.90;;;;;;5098280;28;20048;-74
2022/07/14 03:29:51;;;;;;;7.63;1.73;;;15.30;99.90;;;;;;5098508;28;20062;-74
2022/07/14 03:32:16;;;;;;;3.85;1.50;;;15.30;99.90;;;;;;5098177;28;20040;-74
2022/07/14 03:34:42;;;;;;;5.50;1.40;;;15.30;99.90;;;;;;5099500;28;20324;-74
2022/07/14 03:37:09;;;;;;;3.65;1.42;;;15.30;99.90;;;;;;5098192;28;20044;-74
2022/07/14 03:39:35;;;;;;;6.32;1.40;;;15.30;99.90;;;;;;5098413;28;20433;-74
2022/07/14 03:42:01;;;;;;;5.60;1.90;;;15.20;99.90;;;;;;5099340;28;20444;-74
2022/07/14 03:44:27;;;;;;;4.68;1.38;;;15.20;99.90;;;;;;5098106;28;20036;-74
2022/07/14 03:46:52;;;;;;;4.03;1.30;;;15.20;99.90;;;;;;5099148;28;20105;-74
2022/07/14 03:49:18;;;;;;;3.60;1.58;;;15.20;99.90;;;;;;5099207;28;20130;-73
2022/07/14 03:51:44;;;;;;;5.10;1.30;;;15.20;99.90;;;;;;5098931;28;20059;-73
2022/07/14 03:54:10;;;;;;;4.82;1.33;;;15.20;99.90;;;;;;5080967;28;20417;-74
2022/07/14 03:56:39;;;;;;;5.95;1.50;;;15.20;99.90;;;;;;5098769;28;20097;-74
2022/07/14 03:59:05;;;;;;;4.97;1.55;;;15.20;99.90;;;;;;5079973;28;20534;-74
2022/07/14 04:01:33;;;;;;;4.75;1.35;;;15.20;99.90;;;;;;5098985;28;20101;-74
2022/07/14 04:03:59;;;;;;;7.75;1.75;;;15.20;99.90;;;;;;5098650;28;20044;-74
2022/07/14 04:06:26;;;;;;;2.83;1.27;;;15.30;99.90;;;;;;5098511;28;20051;-74
2022/07/14 04:08:52;;;;;;;6.03;2.13;;;15.20;99.90;;;;;;5097710;28;20074;-74
2022/07/14 04:11:17;;;;;;;4.80;1.50;;;15.30;99.90;;;;;;5098814;28;20064;-74
2022/07/14 04:13:43;;;;;;;4.47;1.48;;;15.20;99.90;;;;;;5097482;28;20328;-74
2022/07/14 04:16:09;;;;;;;8.27;1.88;;;15.20;99.90;;;;;;5097512;28;20097;-74
2022/07/14 04:18:35;;;;;;;5.10;1.65;;;15.20;99.90;;;;;;5098469;28;20379;-74
2022/07/14 04:21:00;;;;;;;4.95;1.88;;;15.20;99.90;;;;;;5097280;28;20103;-75
2022/07/14 04:23:26;;;;;;;8.32;1.88;;;15.20;99.90;;;;;;5098567;28;20036;-73
2022/07/14 04:25:52;;;;;;;4.45;1.42;;;15.30;99.90;;;;;;5096732;28;20052;-73
2022/07/14 04:28:18;;;;;;;4.57;1.48;;;15.40;99.90;;;;;;5097085;28;20040;-74
2022/07/14 04:30:43;;;;;;;5.00;1.77;;;15.40;99.90;;;;;;5097009;28;20434;-74
2022/07/14 04:33:10;;;;;;;5.70;1.52;;;15.40;99.90;;;;;;5098192;28;20043;-74
2022/07/14 04:35:37;;;;;;;4.63;1.38;;;15.40;99.90;;;;;;5097945;28;20417;-74
2022/07/14 04:38:03;;;;;;;5.50;1.75;;;15.40;99.90;;;;;;5096896;28;20040;-74
2022/07/14 04:40:29;;;;;;;4.35;1.70;;;15.50;99.90;;;;;;5098141;28;20221;-73
2022/07/14 04:42:55;;;;;;;6.15;1.77;;;15.60;99.90;;;;;;5097040;28;20044;-74
2022/07/14 04:45:22;;;;;;;4.32;1.88;;;15.60;99.90;;;;;;5098118;28;20051;-74
2022/07/14 04:47:49;;;;;;;6.15;1.80;;;15.70;99.90;;;;;;5097750;28;20040;-73
2022/07/14 04:53:00;;;;;;;5.50;2.20;;;16.00;99.90;;;;;;5082249;28;20079;-74
2022/07/14 04:55:25;;;;;;;7.47;2.30;;;16.00;99.90;;;;;;5096427;28;20064;-74
2022/07/14 04:57:51;;;;;;;9.77;2.30;;;16.00;99.90;;;;;;5097841;28;20040;-74
2022/07/14 05:00:17;;;;;;;6.70;2.22;;;16.10;99.90;;;;;;5097547;28;20044;-74
2022/07/14 05:02:45;;;;;;;8.25;2.47;;;16.20;99.90;;;;;;5097741;28;20097;-75
2022/07/14 05:05:11;;;;;;;10.20;2.60;;;16.20;99.90;;;;;;5097522;28;20040;-74
2022/07/14 05:07:37;;;;;;;6.88;2.50;;;16.30;99.90;;;;;;5097670;28;20043;-74
2022/07/14 05:10:04;;;;;;;8.35;2.67;;;16.40;99.90;;;;;;5097363;28;20044;-74
2022/07/14 05:12:30;;;;;;;7.28;2.25;;;16.50;99.90;;;;;;5097658;28;20040;-74
2022/07/14 05:14:56;;;;;;;3.83;2.30;;;16.50;99.90;;;;;;5097284;28;20328;-74
2022/07/14 05:17:21;;;;;;;9.73;2.30;;;16.70;99.90;;;;;;5097309;28;20048;-75
2022/07/14 05:19:47;;;;;;;5.78;2.35;;;16.90;99.90;;;;;;5097124;28;20047;-74
2022/07/14 05:22:13;;;;;;;10.88;2.35;;;16.90;99.90;;;;;;5096374;28;20047;-75
2022/07/14 05:24:39;;;;;;;7.63;2.05;;;16.90;99.90;;;;;;5096891;28;20479;-74
2022/07/14 05:27:04;;;;;;;6.75;2.20;;;16.90;99.90;;;;;;5095814;28;20059;-74
2022/07/14 05:29:31;;;;;;;10.05;2.47;;;17.00;99.90;;;;;;5097170;28;20306;-74
2022/07/14 05:32:00;;;;;;;7.57;1.75;;;17.10;99.90;;;;;;5096172;28;20054;-75
2022/07/14 05:34:27;;;;;;;5.57;2.10;;;17.20;99.90;;;;;;5096338;28;20062;-74
2022/07/14 05:36:52;;;;;;;6.30;1.83;;;17.40;99.90;;;;;;5096866;28;20044;-74
2022/07/14 05:39:18;;;;;;;5.47;1.60;;;17.60;99.90;;;;;;5096022;28;20123;-74
2022/07/14 05:41:44;;;;;;;6.80;1.80;;;17.70;99.90;;;;;;5095773;28;20310;-74
2022/07/14 05:44:09;;;;;;;7.45;1.65;;;18.00;99.90;;;;;;5096105;28;20047;-74
2022/07/14 05:46:35;;;;;;;6.88;1.60;;;18.10;99.90;;;;;;5095761;28;20047;-74
2022/07/14 05:49:01;;;;;;;6.55;2.15;;;18.20;99.90;;;;;;5096008;28;20044;-75
2022/07/14 05:51:26;;;;;;;8.23;1.17;;;18.40;99.90;;;;;;5095805;28;20036;-74
2022/07/14 05:53:52;;;;;;;5.50;1.67;;;18.40;99.90;;;;;;5096127;28;20043;-75
2022/07/14 05:56:18;;;;;;;5.25;1.10;;;18.50;99.90;;;;;;5095867;28;20044;-74
2022/07/14 05:58:45;;;;;;;7.20;1.20;;;18.70;99.90;;;;;;5096652;28;20036;-74
2022/07/14 06:01:12;;;;;;;5.18;1.40;;;18.70;99.90;;;;;;5096526;28;20435;-74
2022/07/14 06:03:38;;;;;;;5.55;1.30;;;18.70;99.90;;;;;;5096688;28;20039;-74
2022/07/14 06:06:06;;;;;;;6.93;1.20;;;18.80;99.90;;;;;;5095629;28;20123;-74
2022/07/14 06:08:32;;;;;;;9.82;1.10;;;18.90;99.90;;;;;;5096601;28;20418;-74
2022/07/14 06:10:58;;;;;;;7.20;1.65;;;19.00;99.90;;;;;;5078467;28;20040;-75
2022/07/14 06:13:25;;;;;;;6.47;1.10;;;19.10;99.90;;;;;;5078983;28;20046;-75
2022/07/14 06:15:51;;;;;;;5.07;1.10;;;19.30;99.90;;;;;;5096552;28;20115;-74
2022/07/14 06:18:17;;;;;;;8.65;1.15;;;19.30;99.90;;;;;;5095443;28;20142;-75
2022/07/14 06:20:43;;;;;;;8.13;0.80;;;19.40;99.90;;;;;;5096664;28;20046;-74
2022/07/14 06:23:09;;;;;;;7.00;1.38;;;19.50;99.90;;;;;;5098483;28;20044;-74
2022/07/14 06:25:39;;;;;;;10.40;1.55;;;19.50;99.90;;;;;;5098855;28;20056;-74
2022/07/14 06:28:06;;;;;;;9.80;1.20;;;19.60;99.90;;;;;;5100524;28;20044;-74
2022/07/14 06:30:33;;;;;;;12.30;1.05;;;19.50;99.90;;;;;;5099587;28;20040;-74
2022/07/14 06:32:59;;;;;;;4.57;0.80;;;19.30;99.90;;;;;;5099295;28;20079;-74
2022/07/14 06:35:24;;;;;;;8.80;1.48;;;19.40;99.90;;;;;;5100387;28;20067;-74
2022/07/14 06:37:55;;;;;;;5.82;0.73;;;19.20;99.90;;;;;;5100673;28;20092;-74
2022/07/14 06:40:21;;;;;;;7.70;0.75;;;19.10;99.90;;;;;;5099524;28;20332;-74
2022/07/14 06:42:47;;;;;;;7.80;0.98;;;19.00;99.90;;;;;;5100226;28;20452;-72
2022/07/14 06:45:13;;;;;;;4.13;0.85;;;19.10;99.90;;;;;;5100281;28;20043;-73
2022/07/14 06:47:39;;;;;;;7.60;0.88;;;19.00;99.90;;;;;;5100104;28;20070;-71
2022/07/14 06:50:06;;;;;;;7.85;1.20;;;19.00;99.90;;;;;;5100253;28;20434;-72
2022/07/14 06:52:31;;;;;;;5.05;0.75;;;18.90;99.90;;;;;;5100067;28;20429;-71
2022/07/14 06:55:03;;;;;;;6.30;0.80;;;19.00;99.90;;;;;;5081661;28;20067;-71
2022/07/14 06:57:28;;;;;;;4.45;0.70;;;19.00;99.90;;;;;;5098883;28;20048;-71
2022/07/14 06:59:54;;;;;;;4.28;0.73;;;19.20;99.90;;;;;;5100009;28;20040;-72
2022/07/14 07:02:20;;;;;;;6.75;0.70;;;19.30;99.90;;;;;;5100039;28;20494;-72
2022/07/14 07:06:43;;;;;;;8.60;1.27;;;19.30;99.90;;;;;;5100101;28;20131;-72
2022/07/14 07:07:33;;;;;;;;;;;19.30;99.90;;;;;;5103949;28;20455;-71
2022/07/14 07:09:58;;;;;;;8.97;1.00;;;19.20;99.90;;;;;;5098810;28;19916;-71
2022/07/14 07:12:24;;;;;;;5.47;0.50;;;19.20;99.90;;;;;;5099874;28;20040;-71
2022/07/14 07:14:49;;;;;;;6.93;0.93;;;19.20;99.90;;;;;;5099950;28;20416;-71
2022/07/14 07:17:15;;;;;;;4.97;1.00;;;19.50;99.90;;;;;;5099591;28;20036;-71
2022/07/14 07:19:41;;;;;;;5.97;0.55;;;19.70;99.90;;;;;;5099508;28;20097;-71
2022/07/14 07:22:06;;;;;;;4.60;0.70;;;19.80;99.90;;;;;;5099488;28;20040;-71
2022/07/14 07:24:32;;;;;;;5.70;0.60;;;19.70;99.90;;;;;;5099081;28;20176;-70
2022/07/14 07:26:58;;;;;;;8.10;0.88;;;19.60;99.90;;;;;;5099057;28;20104;-70
2022/07/14 07:29:23;;;;;;;3.28;0.43;;;19.50;99.90;;;;;;5099508;28;20071;-69
2022/07/14 07:31:49;;;;;;;6.38;0.60;;;19.60;99.90;;;;;;5099425;28;20044;-69
2022/07/14 07:34:14;;;;;;;3.67;0.50;;;19.50;99.90;;;;;;5099128;28;20047;-70
2022/07/14 07:36:40;;;;;;;5.72;0.60;;;19.50;99.90;;;;;;5098401;28;20044;-69
2022/07/14 07:39:06;;;;;;;6.05;0.60;;;19.80;99.90;;;;;;5098936;28;20111;-70
2022/07/14 07:41:32;;;;;;;4.07;0.65;;;19.90;99.90;;;;;;5099355;28;20043;-69
2022/07/14 07:43:58;;;;;;;5.70;0.70;;;20.10;99.90;;;;;;5099348;28;20035;-69
2022/07/14 07:46:26;;;;;;;2.83;0.43;;;20.40;99.90;;;;;;5098121;28;20097;-69
2022/07/14 07:48:51;;;;;;;6.10;0.57;;;20.20;99.90;;;;;;5099277;28;20036;-69
2022/07/14 07:51:17;;;;;;;4.53;0.60;;;20.00;99.90;;;;;;5096267;28;20341;-71
2022/07/14 07:53:43;;;;;;;5.20;0.35;;;19.90;99.90;;;;;;5080631;28;20483;-69
2022/07/14 07:56:09;;;;;;;3.60;0.47;;;19.70;99.90;;;;;;5078125;28;20052;-69
2022/07/14 07:58:35;;;;;;;2.40;0.40;;;19.80;99.90;;;;;;5078501;28;20040;-69
2022/07/14 08:01:01;;;;;;;6.43;0.60;;;19.90;99.90;;;;;;5080889;28;20089;-69
2022/07/14 08:03:28;;;;;;;5.57;0.85;;;20.20;99.90;;;;;;5086696;28;20112;-70
2022/07/14 08:05:55;;;;;;;7.65;0.63;;;20.40;99.90;;;;;;5077071;28;20432;-71
2022/07/14 08:08:21;;;;;;;4.32;0.55;;;20.50;99.90;;;;;;5097101;28;20044;-72
2022/07/14 08:10:48;;;;;;;8.30;0.63;;;20.70;99.90;;;;;;5096280;28;20047;-70
2022/07/14 08:13:14;;;;;;;3.85;0.40;;;20.60;99.90;;;;;;5097385;28;20043;-70
2022/07/14 08:15:40;;;;;;;5.30;0.57;;;20.70;99.90;;;;;;5097059;28;20044;-72
2022/07/14 08:18:07;;;;;;;2.33;0.40;;;20.50;99.90;;;;;;5094861;28;20040;-70
2022/07/14 08:20:33;;;;;;;4.35;0.57;;;20.60;99.90;;;;;;5092842;28;20119;-71
2022/07/14 08:23:02;;;;;;;4.07;0.55;;;20.70;99.90;;;;;;5087370;28;20086;-89
2022/07/14 08:25:28;;;;;;;3.83;0.50;;;20.70;99.90;;;;;;5109861;28;20055;-92
2022/07/14 08:27:58;;;;;;;6.18;0.50;;;20.50;99.90;;;;;;5094569;28;20440;-90
2022/07/14 08:30:24;;;;;;;6.30;0.80;;;20.30;99.90;;;;;;5111063;28;20043;-72
2022/07/14 08:32:51;;;;;;;3.25;0.52;;;20.40;99.90;;;;;;5110750;28;20123;-74
2022/07/14 08:35:19;;;;;;;4.57;0.50;;;20.70;99.90;;;;;;5078159;28;20041;-70
2022/07/14 08:37:46;;;;;;;3.22;0.30;;;20.80;99.90;;;;;;5077758;28;20041;-70
2022/07/14 08:40:14;;;;;;;4.68;0.60;;;20.80;99.90;;;;;;5110457;28;20047;-70
2022/07/14 08:42:44;;;;;;;6.97;0.70;;;20.90;99.90;;;;;;5076859;28;20352;-71
2022/07/14 08:45:18;;;;;;;4.13;0.60;;;20.90;99.90;;;;;;5081056;28;20333;-71
2022/07/14 08:47:45;;;;;;;3.95;0.55;;;20.80;99.90;;;;;;5089944;28;20314;-71
2022/07/14 08:50:13;;;;;;;2.60;0.40;;;20.90;99.90;;;;;;5096912;28;20097;-71
2022/07/14 08:52:41;;;;;;;4.45;0.63;;;21.00;99.90;;;;;;5093458;28;20129;-71
2022/07/14 08:55:09;;;;;;;3.97;0.32;;;21.10;99.90;;;;;;5096202;28;20067;-71
2022/07/14 08:57:36;;;;;;;3.60;0.35;;;21.40;99.90;;;;;;5097179;28;20042;-72
2022/07/14 09:00:08;;;;;;;5.68;0.50;;;21.00;99.90;;;;;;5096346;28;20040;-73
2022/07/14 09:02:34;;;;;;;3.03;0.40;;;21.10;99.90;;;;;;5096363;28;20135;-71
2022/07/14 09:04:59;;;;;;;5.68;0.60;;;21.30;99.90;;;;;;5097809;28;20148;-71
2022/07/14 09:07:34;;;;;;;3.35;0.43;;;21.40;99.90;;;;;;5097628;28;20425;-71
2022/07/14 09:10:23;;;;;;;1.67;0.30;;;21.40;99.90;;;;;;5096512;28;20040;-71
2022/07/14 09:12:48;;;;;;;5.88;0.70;;;21.10;99.90;;;;;;5097476;28;20036;-71
2022/07/14 09:18:08;;;;;;;2.20;0.40;;;21.20;99.90;;;;;;5097806;28;20131;-71
2022/07/14 09:20:36;;;;;;;3.88;0.45;;;21.20;99.90;;;;;;5097344;28;20112;-71
2022/07/14 09:23:04;;;;;;;2.72;0.40;;;21.50;99.90;;;;;;5097123;28;20104;-71
2022/07/14 09:25:32;;;;;;;6.00;0.98;;;21.60;99.90;;;;;;5096497;28;20417;-72
2022/07/14 09:27:58;;;;;;;2.95;0.60;;;21.70;99.90;;;;;;5097307;28;20131;-71
2022/07/14 09:30:25;;;;;;;3.53;0.50;;;21.40;99.90;;;;;;5097032;28;20472;-72
2022/07/14 09:32:53;;;;;;;4.22;0.47;;;21.30;99.90;;;;;;5096018;28;20032;-72
2022/07/14 09:35:37;;;;;;;2.47;0.40;;;21.30;99.90;;;;;;5097284;28;20044;-71
2022/07/14 09:38:25;;;;;;;5.15;0.50;;;21.30;99.90;;;;;;5096846;28;20322;-72
2022/07/14 09:40:51;;;;;;;3.67;0.68;;;21.10;99.90;;;;;;5097065;28;20044;-72
2022/07/14 09:43:17;;;;;;;4.75;0.60;;;21.20;99.90;;;;;;5096028;28;20066;-71
2022/07/14 09:45:50;;;;;;;4.30;0.57;;;21.30;99.90;;;;;;5096882;28;20040;-71
2022/07/14 09:48:21;;;;;;;3.08;0.40;;;21.40;99.90;;;;;;5096766;28;20075;-71
2022/07/14 09:50:57;;;;;;;2.20;0.50;;;21.30;99.90;;;;;;5096869;28;20039;-71
2022/07/14 09:53:24;;;;;;;;;;;21.40;99.90;;;;;;5096204;28;20051;-72
2022/07/14 09:55:56;;;;;;;2.70;0.43;;;21.40;99.90;;;;;;5096542;28;19916;-71
2022/07/14 09:58:23;;;;;;;5.13;0.55;;;21.50;99.90;;;;;;5095853;28;20101;-71
2022/07/14 10:01:04;;;;;;;1.45;0.30;;;21.60;99.90;;;;;;5096963;28;20044;-71
2022/07/14 10:03:32;;;;;;;6.00;0.43;;;21.60;99.90;;;;;;5096672;28;20386;-71
2022/07/14 10:06:00;;;;;;;5.63;0.50;;;21.80;99.90;;;;;;5096684;28;20448;-71
2022/07/14 10:08:28;;;;;;;4.57;0.60;;;21.90;99.90;;;;;;5095419;28;20044;-71
2022/07/14 10:10:56;;;;;;;3.20;0.30;;;21.90;99.90;;;;;;5096745;28;20036;-72
2022/07/14 10:13:23;;;;;;;3.13;0.30;;;21.90;99.90;;;;;;5096533;28;20040;-71
2022/07/14 10:15:50;;;;;;;2.97;0.40;;;21.90;99.90;;;;;;5096576;28;20044;-71
2022/07/14 10:18:16;;;;;;;1.95;0.35;;;21.80;99.90;;;;;;5079178;28;20044;-71
2022/07/14 10:20:46;;;;;;;6.95;0.55;;;21.90;99.90;;;;;;5096556;28;20044;-89
2022/07/14 10:23:12;;;;;;;7.20;0.77;;;22.20;99.90;;;;;;5095447;28;20428;-71
2022/07/14 10:25:39;;;;;;;5.32;0.63;;;22.20;99.90;;;;;;5094960;28;20056;-71
2022/07/14 10:28:05;;;;;;;5.50;0.70;;;22.50;99.90;;;;;;5078981;28;20040;-70
2022/07/14 10:30:52;;;;;;;2.30;0.40;;;22.50;99.90;;;;;;5095225;28;20420;-69
2022/07/14 10:33:41;;;;;;;7.97;0.50;;;22.40;99.90;;;;;;5096083;28;20067;-70
2022/07/14 10:36:32;;;;;;;1.75;0.40;;;22.10;99.90;;;;;;5096420;28;20032;-70
2022/07/14 10:39:13;;;;;;;2.00;0.50;;;22.10;99.90;;;;;;5093158;28;20079;-70
2022/07/14 10:42:16;;;;;;;3.60;0.43;;;22.00;99.90;;;;;;5096556;28;20044;-87
2022/07/14 10:44:46;;;;;;;5.95;0.70;;;22.00;99.80;;;;;;5079345;28;20040;-93
2022/07/14 10:47:15;;;;;;;3.22;0.40;;;22.00;99.90;;;;;;5079622;28;20413;-86
2022/07/14 10:50:06;;;;;;;1.85;0.43;;;22.10;99.90;;;;;;5097005;28;20043;-93
2022/07/14 10:52:35;;;;;;;4.97;0.60;;;21.70;99.70;;;;;;5096070;28;20043;-87
2022/07/14 10:55:27;;;;;;;3.22;0.68;;;21.30;99.90;;;;;;5094796;28;20044;-85
2022/07/14 10:57:59;;;;;;;3.35;0.80;;;20.90;99.90;;;;;;5095172;28;20040;-68
2022/07/14 11:00:47;;;;;;;3.47;0.60;;;20.90;99.90;;;;;;5095942;28;20040;-68
2022/07/14 11:03:26;;;;;;;2.03;0.40;;;21.30;99.90;;;;;;5096312;28;20075;-67
2022/07/14 11:06:03;;;;;;;5.45;0.90;;;21.40;99.90;;;;;;5095904;28;20400;-70
2022/07/14 11:08:29;;;;;;;2.88;0.50;;;21.60;99.90;;;;;;5096885;28;20044;-68
2022/07/14 11:10:57;;;;;;;5.40;0.57;;;21.70;99.90;;;;;;5099028;28;20032;-68
2022/07/14 11:13:23;;;;;;;2.95;0.77;;;21.70;99.90;;;;;;5098659;28;20114;-68
2022/07/14 11:15:53;;;;;;;4.18;0.60;;;21.90;99.90;;;;;;5098671;28;20458;-68
2022/07/14 11:18:18;;;;;;;2.95;0.50;;;22.00;99.90;;;;;;5099562;28;20093;-69
2022/07/14 11:20:55;;;;;;;2.00;0.32;;;22.00;99.90;;;;;;5099867;28;20044;-69
2022/07/14 11:23:50;;;;;;;2.58;0.30;;;22.00;99.90;;;;;;5098805;28;20055;-68
2022/07/14 11:26:36;;;;;;;1.98;0.40;;;22.00;99.90;;;;;;5099304;28;20427;-66
2022/07/14 11:29:03;;;;;;;;;;;22.00;99.90;;;;;;5100199;28;20340;-67
2022/07/14 11:31:50;;;;;;;3.08;0.65;;;21.90;99.90;;;;;;5099452;28;19978;-68
2022/07/14 11:37:12;;;;;;;2.38;0.40;;;22.30;99.90;;;;;;5099529;28;20063;-68
2022/07/14 11:39:44;;;;;;;3.13;0.47;;;22.40;99.90;;;;;;5099487;28;20111;-68
2022/07/14 11:42:11;;;;;;;5.28;0.68;;;22.70;99.90;;;;;;5099433;28;20043;-68
2022/07/14 11:44:40;;;;;;;3.90;0.40;;;22.80;99.40;;;;;;5099212;28;20427;-67
2022/07/14 11:47:12;;;;;;;2.45;0.40;;;22.90;99.30;;;;;;5099086;28;20043;-68
2022/07/14 11:49:38;;;;;;;5.22;0.45;;;22.70;99.10;;;;;;5098909;28;20170;-68
2022/07/14 11:52:06;;;;;;;2.35;0.40;;;22.80;99.20;;;;;;5099058;28;20064;-65
2022/07/14 11:54:32;;;;;;;4.47;0.47;;;22.60;99.40;;;;;;5098769;28;20043;-68
2022/07/14 11:57:06;;;;;;;4.07;0.50;;;22.50;99.50;;;;;;5099000;28;20043;-66
2022/07/14 11:59:33;;;;;;;2.95;0.57;;;22.90;99.60;;;;;;5098789;28;20109;-66
2022/07/14 12:02:14;;;;;;;1.90;0.40;;;23.50;99.50;;;;;;5098712;28;20333;-66
2022/07/14 12:05:00;;;;;;;5.40;0.47;;;23.60;99.30;;;;;;5098753;28;20040;-66
2022/07/14 12:07:42;;;;;;;3.45;0.47;;;23.60;99.20;;;;;;5098892;28;20043;-67
2022/07/14 12:10:09;;;;;;;3.38;0.70;;;23.40;98.90;;;;;;5098800;28;20036;-67
2022/07/14 12:12:41;;;;;;;2.65;0.40;;;23.70;98.90;;;;;;5098583;28;20097;-66
2022/07/14 12:15:07;;;;;;;5.45;0.40;;;24.00;98.80;;;;;;5097578;28;20048;-65
2022/07/14 12:17:47;;;;;;;2.25;0.50;;;24.00;98.80;;;;;;5098800;28;20047;-65
2022/07/14 12:20:13;;;;;;;4.32;0.40;;;23.90;99.10;;;;;;5096447;28;20050;-65
2022/07/14 12:22:54;;;;;;;2.10;0.30;;;23.80;99.30;;;;;;5098545;28;20086;-66
2022/07/14 12:25:24;;;;;;;3.40;0.22;;;24.10;99.10;;;;;;5098080;28;20046;-66
2022/07/14 12:27:50;;;;;;;5.78;0.55;;;24.40;99.00;;;;;;5097170;28;20456;-66
2022/07/14 12:30:16;;;;;;;1.90;0.40;;;24.60;99.10;;;;;;5098503;28;20028;-66
2022/07/14 12:32:42;;;;;;;3.33;0.40;;;24.60;98.70;;;;;;5098135;28;20459;-66
2022/07/14 12:35:08;;;;;;;6.35;0.50;;;24.60;98.90;;;;;;5098335;28;20365;-67
2022/07/14 12:37:34;;;;;;;3.20;0.40;;;24.50;99.10;;;;;;5097978;28;20108;-66
2022/07/14 12:40:01;;;;;;;2.92;0.57;;;24.60;99.00;;;;;;5098176;28;20074;-66
2022/07/14 12:42:27;;;;;;;1.90;0.40;;;24.50;99.20;;;;;;5098246;28;20082;-66
2022/07/14 12:45:02;;;;;;;5.05;0.70;;;24.40;99.10;;;;;;5097025;28;20040;-66
2022/07/14 12:47:28;;;;;;;4.13;0.70;;;24.40;99.20;;;;;;5098014;28;20040;-66
2022/07/14 12:49:54;;;;;;;3.63;0.60;;;24.20;99.20;;;;;;5097979;28;20062;-66
2022/07/14 12:52:20;;;;;;;4.55;0.60;;;23.80;99.60;;;;;;5098073;28;20032;-66
2022/07/14 12:54:46;;;;;;;2.63;0.32;;;23.90;99.60;;;;;;5097629;28;20329;-66
2022/07/14 12:57:23;;;;;;;3.08;0.55;;;23.80;99.60;;;;;;5097839;28;20039;-66
2022/07/14 12:59:49;;;;;;;5.85;0.55;;;23.60;99.40;;;;;;5097947;28;20118;-66
2022/07/14 13:02:22;;;;;;;5.95;0.47;;;23.50;99.50;;;;;;5097665;28;20437;-66
2022/07/14 13:05:02;;;;;;;4.03;0.43;;;23.30;99.30;;;;;;5097898;28;20359;-66